sensor_id;sensor_type;location;lat;lon;timestamp;P1;durP1;ratioP1;P2;durP2;ratioP2
18748;SDS011;9503;53.560;10.246;2023-10-19T00:00:14;13.77;;;6.47;;
18748;SDS011;9503;53.560;10.246;2023-10-19T00:02:49;12.33;;;7.03;;
18748;SDS011;9503;53.560;10.246;2023-10-19T00:05:20;12.27;;;6.50;;
18748;SDS011;9503;53.560;10.246;2023-10-19T00:07:46;12.27;;;7.03;;
18748;SDS011;9503;53.560;10.246;2023-10-19T00:10:13;14.03;;;7.57;;
18748;SDS011;9503;53.560;10.246;2023-10-19T00:12:43;11.53;;;7.20;;
18748;SDS011;9503;53.560;10.246;2023-10-19T00:15:17;12.80;;;7.50;;
18748;SDS011;9503;53.560;10.246;2023-10-19T00:17:48;12.27;;;6.63;;
18748;SDS011;9503;53.560;10.246;2023-10-19T00:20:18;13.73;;;7.90;;
18748;SDS011;9503;53.560;10.246;2023-10-19T00:23:00;12.53;;;7.10;;
18748;SDS011;9503;53.560;10.246;2023-10-19T00:25:30;10.10;;;7.10;;
18748;SDS011;9503;53.560;10.246;2023-10-19T00:27:59;12.87;;;7.50;;
18748;SDS011;9503;53.560;10.246;2023-10-19T00:30:30;13.67;;;7.80;;
18748;SDS011;9503;53.560;10.246;2023-10-19T00:33:00;11.87;;;6.80;;
18748;SDS011;9503;53.560;10.246;2023-10-19T00:35:29;11.57;;;7.17;;
18748;SDS011;9503;53.560;10.246;2023-10-19T00:38:00;14.17;;;7.07;;
18748;SDS011;9503;53.560;10.246;2023-10-19T00:40:49;15.03;;;7.00;;
18748;SDS011;9503;53.560;10.246;2023-10-19T00:43:27;11.27;;;7.10;;
18748;SDS011;9503;53.560;10.246;2023-10-19T00:45:58;13.67;;;7.33;;
18748;SDS011;9503;53.560;10.246;2023-10-19T00:48:28;13.57;;;7.73;;
18748;SDS011;9503;53.560;10.246;2023-10-19T00:50:57;15.30;;;7.87;;
18748;SDS011;9503;53.560;10.246;2023-10-19T00:53:35;11.17;;;6.93;;
18748;SDS011;9503;53.560;10.246;2023-10-19T00:56:04;11.57;;;6.67;;
18748;SDS011;9503;53.560;10.246;2023-10-19T00:58:36;12.07;;;7.00;;
18748;SDS011;9503;53.560;10.246;2023-10-19T01:01:06;15.30;;;8.03;;
18748;SDS011;9503;53.560;10.246;2023-10-19T01:03:34;13.87;;;7.00;;
18748;SDS011;9503;53.560;10.246;2023-10-19T01:06:03;10.57;;;6.80;;
18748;SDS011;9503;53.560;10.246;2023-10-19T01:08:35;18.70;;;7.30;;
18748;SDS011;9503;53.560;10.246;2023-10-19T01:11:07;15.57;;;6.90;;
18748;SDS011;9503;53.560;10.246;2023-10-19T01:13:39;12.87;;;8.10;;
18748;SDS011;9503;53.560;10.246;2023-10-19T01:16:11;13.13;;;7.37;;
18748;SDS011;9503;53.560;10.246;2023-10-19T01:18:41;14.03;;;7.57;;
18748;SDS011;9503;53.560;10.246;2023-10-19T01:21:08;13.60;;;6.50;;
18748;SDS011;9503;53.560;10.246;2023-10-19T01:23:38;11.80;;;7.33;;
18748;SDS011;9503;53.560;10.246;2023-10-19T01:26:05;14.07;;;7.27;;
18748;SDS011;9503;53.560;10.246;2023-10-19T01:28:34;12.50;;;7.27;;
18748;SDS011;9503;53.560;10.246;2023-10-19T01:31:14;12.33;;;7.37;;
18748;SDS011;9503;53.560;10.246;2023-10-19T01:33:42;13.87;;;7.20;;
18748;SDS011;9503;53.560;10.246;2023-10-19T01:36:10;12.37;;;7.00;;
18748;SDS011;9503;53.560;10.246;2023-10-19T01:38:35;13.03;;;7.30;;
18748;SDS011;9503;53.560;10.246;2023-10-19T01:41:04;13.13;;;7.23;;
18748;SDS011;9503;53.560;10.246;2023-10-19T01:43:32;14.10;;;7.70;;
18748;SDS011;9503;53.560;10.246;2023-10-19T01:45:58;12.10;;;6.97;;
18748;SDS011;9503;53.560;10.246;2023-10-19T01:48:29;10.57;;;6.77;;
18748;SDS011;9503;53.560;10.246;2023-10-19T01:50:58;13.83;;;7.77;;
18748;SDS011;9503;53.560;10.246;2023-10-19T01:53:25;12.60;;;7.17;;
18748;SDS011;9503;53.560;10.246;2023-10-19T01:55:53;11.57;;;7.53;;
18748;SDS011;9503;53.560;10.246;2023-10-19T01:58:23;18.47;;;7.93;;
18748;SDS011;9503;53.560;10.246;2023-10-19T02:00:51;14.70;;;7.90;;
18748;SDS011;9503;53.560;10.246;2023-10-19T02:03:20;12.23;;;7.17;;
18748;SDS011;9503;53.560;10.246;2023-10-19T02:05:48;16.10;;;7.37;;
18748;SDS011;9503;53.560;10.246;2023-10-19T02:08:15;14.27;;;7.70;;
18748;SDS011;9503;53.560;10.246;2023-10-19T02:10:45;13.27;;;7.63;;
18748;SDS011;9503;53.560;10.246;2023-10-19T02:13:13;13.93;;;7.67;;
18748;SDS011;9503;53.560;10.246;2023-10-19T02:15:42;14.80;;;8.00;;
18748;SDS011;9503;53.560;10.246;2023-10-19T02:18:08;12.30;;;7.70;;
18748;SDS011;9503;53.560;10.246;2023-10-19T02:20:35;13.70;;;8.13;;
18748;SDS011;9503;53.560;10.246;2023-10-19T02:23:05;16.80;;;7.80;;
18748;SDS011;9503;53.560;10.246;2023-10-19T02:25:32;13.67;;;8.00;;
18748;SDS011;9503;53.560;10.246;2023-10-19T02:28:01;14.47;;;7.97;;
18748;SDS011;9503;53.560;10.246;2023-10-19T02:30:33;13.87;;;7.87;;
18748;SDS011;9503;53.560;10.246;2023-10-19T02:32:59;13.93;;;7.87;;
18748;SDS011;9503;53.560;10.246;2023-10-19T02:35:26;16.53;;;7.90;;
18748;SDS011;9503;53.560;10.246;2023-10-19T02:37:52;16.67;;;8.27;;
18748;SDS011;9503;53.560;10.246;2023-10-19T02:40:19;15.23;;;8.47;;
18748;SDS011;9503;53.560;10.246;2023-10-19T02:42:45;13.37;;;7.63;;
18748;SDS011;9503;53.560;10.246;2023-10-19T02:45:14;13.70;;;8.27;;
18748;SDS011;9503;53.560;10.246;2023-10-19T02:47:43;14.23;;;7.70;;
18748;SDS011;9503;53.560;10.246;2023-10-19T02:50:10;13.07;;;8.00;;
18748;SDS011;9503;53.560;10.246;2023-10-19T02:52:38;14.57;;;8.30;;
18748;SDS011;9503;53.560;10.246;2023-10-19T02:55:07;12.10;;;7.10;;
18748;SDS011;9503;53.560;10.246;2023-10-19T02:57:34;16.00;;;8.07;;
18748;SDS011;9503;53.560;10.246;2023-10-19T03:00:01;13.63;;;7.60;;
18748;SDS011;9503;53.560;10.246;2023-10-19T03:02:33;17.23;;;7.90;;
18748;SDS011;9503;53.560;10.246;2023-10-19T03:05:03;12.90;;;8.30;;
18748;SDS011;9503;53.560;10.246;2023-10-19T03:07:37;16.50;;;8.23;;
18748;SDS011;9503;53.560;10.246;2023-10-19T03:10:05;15.27;;;8.17;;
18748;SDS011;9503;53.560;10.246;2023-10-19T03:12:31;16.53;;;7.87;;
18748;SDS011;9503;53.560;10.246;2023-10-19T03:14:58;15.93;;;8.77;;
18748;SDS011;9503;53.560;10.246;2023-10-19T03:17:25;13.93;;;7.90;;
18748;SDS011;9503;53.560;10.246;2023-10-19T03:19:54;15.77;;;8.07;;
18748;SDS011;9503;53.560;10.246;2023-10-19T03:22:22;16.23;;;8.27;;
18748;SDS011;9503;53.560;10.246;2023-10-19T03:24:48;13.60;;;7.40;;
18748;SDS011;9503;53.560;10.246;2023-10-19T03:27:23;17.13;;;8.67;;
18748;SDS011;9503;53.560;10.246;2023-10-19T03:29:50;14.37;;;7.73;;
18748;SDS011;9503;53.560;10.246;2023-10-19T03:32:20;13.77;;;7.23;;
18748;SDS011;9503;53.560;10.246;2023-10-19T03:34:51;19.00;;;8.83;;
18748;SDS011;9503;53.560;10.246;2023-10-19T03:37:22;12.83;;;7.73;;
18748;SDS011;9503;53.560;10.246;2023-10-19T03:39:50;13.83;;;7.50;;
18748;SDS011;9503;53.560;10.246;2023-10-19T03:42:16;14.43;;;7.97;;
18748;SDS011;9503;53.560;10.246;2023-10-19T03:44:46;15.23;;;7.87;;
18748;SDS011;9503;53.560;10.246;2023-10-19T03:47:18;13.00;;;7.50;;
18748;SDS011;9503;53.560;10.246;2023-10-19T03:49:45;16.67;;;8.30;;
18748;SDS011;9503;53.560;10.246;2023-10-19T03:52:12;13.53;;;7.90;;
18748;SDS011;9503;53.560;10.246;2023-10-19T03:54:53;14.53;;;8.47;;
18748;SDS011;9503;53.560;10.246;2023-10-19T03:57:20;13.43;;;8.30;;
18748;SDS011;9503;53.560;10.246;2023-10-19T03:59:48;15.93;;;8.53;;
18748;SDS011;9503;53.560;10.246;2023-10-19T04:02:21;14.27;;;7.87;;
18748;SDS011;9503;53.560;10.246;2023-10-19T04:04:48;17.40;;;9.13;;
18748;SDS011;9503;53.560;10.246;2023-10-19T04:07:17;14.83;;;8.73;;
18748;SDS011;9503;53.560;10.246;2023-10-19T04:09:47;22.97;;;9.97;;
18748;SDS011;9503;53.560;10.246;2023-10-19T04:12:51;20.97;;;9.83;;
18748;SDS011;9503;53.560;10.246;2023-10-19T04:15:19;17.43;;;8.80;;
18748;SDS011;9503;53.560;10.246;2023-10-19T04:17:47;19.00;;;9.10;;
18748;SDS011;9503;53.560;10.246;2023-10-19T04:20:15;19.03;;;10.07;;
18748;SDS011;9503;53.560;10.246;2023-10-19T04:22:55;19.87;;;10.03;;
18748;SDS011;9503;53.560;10.246;2023-10-19T04:25:23;19.83;;;9.67;;
18748;SDS011;9503;53.560;10.246;2023-10-19T04:27:53;15.10;;;8.67;;
18748;SDS011;9503;53.560;10.246;2023-10-19T04:30:22;19.87;;;10.03;;
18748;SDS011;9503;53.560;10.246;2023-10-19T04:32:49;27.60;;;11.13;;
18748;SDS011;9503;53.560;10.246;2023-10-19T04:35:18;18.67;;;9.70;;
18748;SDS011;9503;53.560;10.246;2023-10-19T04:37:47;20.93;;;10.70;;
18748;SDS011;9503;53.560;10.246;2023-10-19T04:40:15;23.27;;;10.60;;
18748;SDS011;9503;53.560;10.246;2023-10-19T04:42:42;19.50;;;10.40;;
18748;SDS011;9503;53.560;10.246;2023-10-19T04:45:10;20.43;;;11.13;;
18748;SDS011;9503;53.560;10.246;2023-10-19T04:47:37;20.70;;;10.87;;
18748;SDS011;9503;53.560;10.246;2023-10-19T04:50:05;19.70;;;10.73;;
18748;SDS011;9503;53.560;10.246;2023-10-19T04:52:33;20.23;;;10.67;;
18748;SDS011;9503;53.560;10.246;2023-10-19T04:55:00;27.10;;;12.20;;
18748;SDS011;9503;53.560;10.246;2023-10-19T04:57:27;19.70;;;10.03;;
18748;SDS011;9503;53.560;10.246;2023-10-19T04:59:54;21.63;;;11.13;;
18748;SDS011;9503;53.560;10.246;2023-10-19T05:02:22;21.00;;;11.53;;
18748;SDS011;9503;53.560;10.246;2023-10-19T05:04:48;22.43;;;11.30;;
18748;SDS011;9503;53.560;10.246;2023-10-19T05:07:15;26.57;;;11.87;;
18748;SDS011;9503;53.560;10.246;2023-10-19T05:09:42;28.43;;;13.03;;
18748;SDS011;9503;53.560;10.246;2023-10-19T05:12:09;24.17;;;11.97;;
18748;SDS011;9503;53.560;10.246;2023-10-19T05:14:36;21.27;;;11.27;;
18748;SDS011;9503;53.560;10.246;2023-10-19T05:17:03;27.27;;;11.70;;
18748;SDS011;9503;53.560;10.246;2023-10-19T05:19:32;25.87;;;11.93;;
18748;SDS011;9503;53.560;10.246;2023-10-19T05:22:00;26.33;;;12.60;;
18748;SDS011;9503;53.560;10.246;2023-10-19T05:24:27;23.90;;;12.93;;
18748;SDS011;9503;53.560;10.246;2023-10-19T05:26:54;27.17;;;12.43;;
18748;SDS011;9503;53.560;10.246;2023-10-19T05:29:21;27.10;;;13.30;;
18748;SDS011;9503;53.560;10.246;2023-10-19T05:31:50;25.00;;;13.20;;
18748;SDS011;9503;53.560;10.246;2023-10-19T05:34:19;27.97;;;13.20;;
18748;SDS011;9503;53.560;10.246;2023-10-19T05:36:47;26.07;;;12.80;;
18748;SDS011;9503;53.560;10.246;2023-10-19T05:39:16;29.10;;;12.57;;
18748;SDS011;9503;53.560;10.246;2023-10-19T05:41:43;25.83;;;12.27;;
18748;SDS011;9503;53.560;10.246;2023-10-19T05:44:10;27.63;;;13.13;;
18748;SDS011;9503;53.560;10.246;2023-10-19T05:46:36;25.77;;;13.13;;
18748;SDS011;9503;53.560;10.246;2023-10-19T05:49:05;27.47;;;12.73;;
18748;SDS011;9503;53.560;10.246;2023-10-19T05:51:33;25.33;;;11.77;;
18748;SDS011;9503;53.560;10.246;2023-10-19T05:54:01;29.57;;;13.70;;
18748;SDS011;9503;53.560;10.246;2023-10-19T05:56:28;25.53;;;12.17;;
18748;SDS011;9503;53.560;10.246;2023-10-19T05:58:55;28.67;;;13.73;;
18748;SDS011;9503;53.560;10.246;2023-10-19T06:01:22;25.37;;;13.43;;
18748;SDS011;9503;53.560;10.246;2023-10-19T06:03:50;30.20;;;13.07;;
18748;SDS011;9503;53.560;10.246;2023-10-19T06:06:16;32.10;;;13.70;;
18748;SDS011;9503;53.560;10.246;2023-10-19T06:08:44;28.50;;;13.73;;
18748;SDS011;9503;53.560;10.246;2023-10-19T06:11:12;25.97;;;13.00;;
18748;SDS011;9503;53.560;10.246;2023-10-19T06:13:39;28.83;;;13.57;;
18748;SDS011;9503;53.560;10.246;2023-10-19T06:16:06;26.93;;;13.87;;
18748;SDS011;9503;53.560;10.246;2023-10-19T06:18:33;28.70;;;13.40;;
18748;SDS011;9503;53.560;10.246;2023-10-19T06:20:59;26.23;;;13.03;;
18748;SDS011;9503;53.560;10.246;2023-10-19T06:23:26;23.83;;;12.97;;
18748;SDS011;9503;53.560;10.246;2023-10-19T06:25:53;29.93;;;13.53;;
18748;SDS011;9503;53.560;10.246;2023-10-19T06:28:21;31.50;;;13.57;;
18748;SDS011;9503;53.560;10.246;2023-10-19T06:30:47;27.57;;;14.27;;
18748;SDS011;9503;53.560;10.246;2023-10-19T06:33:15;29.90;;;14.13;;
18748;SDS011;9503;53.560;10.246;2023-10-19T06:35:42;25.27;;;12.77;;
18748;SDS011;9503;53.560;10.246;2023-10-19T06:38:09;29.20;;;13.23;;
18748;SDS011;9503;53.560;10.246;2023-10-19T06:40:35;24.87;;;12.60;;
18748;SDS011;9503;53.560;10.246;2023-10-19T06:43:02;28.00;;;13.17;;
18748;SDS011;9503;53.560;10.246;2023-10-19T06:45:32;29.33;;;13.13;;
18748;SDS011;9503;53.560;10.246;2023-10-19T06:47:59;28.57;;;14.07;;
18748;SDS011;9503;53.560;10.246;2023-10-19T06:50:26;26.47;;;13.43;;
18748;SDS011;9503;53.560;10.246;2023-10-19T06:52:53;25.30;;;13.30;;
18748;SDS011;9503;53.560;10.246;2023-10-19T06:55:20;30.17;;;13.20;;
18748;SDS011;9503;53.560;10.246;2023-10-19T06:57:48;24.00;;;12.30;;
18748;SDS011;9503;53.560;10.246;2023-10-19T07:00:15;27.53;;;13.33;;
18748;SDS011;9503;53.560;10.246;2023-10-19T07:02:46;27.40;;;13.40;;
18748;SDS011;9503;53.560;10.246;2023-10-19T07:05:13;26.20;;;12.30;;
18748;SDS011;9503;53.560;10.246;2023-10-19T07:07:43;28.57;;;13.10;;
18748;SDS011;9503;53.560;10.246;2023-10-19T07:10:11;31.43;;;14.60;;
18748;SDS011;9503;53.560;10.246;2023-10-19T07:12:40;32.83;;;14.17;;
18748;SDS011;9503;53.560;10.246;2023-10-19T07:15:08;27.60;;;12.87;;
18748;SDS011;9503;53.560;10.246;2023-10-19T07:17:38;24.40;;;13.53;;
18748;SDS011;9503;53.560;10.246;2023-10-19T07:20:08;26.30;;;13.47;;
18748;SDS011;9503;53.560;10.246;2023-10-19T07:22:47;24.07;;;12.97;;
18748;SDS011;9503;53.560;10.246;2023-10-19T07:25:14;26.37;;;12.00;;
18748;SDS011;9503;53.560;10.246;2023-10-19T07:27:40;26.23;;;12.67;;
18748;SDS011;9503;53.560;10.246;2023-10-19T07:30:08;25.70;;;13.57;;
18748;SDS011;9503;53.560;10.246;2023-10-19T07:32:35;28.73;;;14.23;;
18748;SDS011;9503;53.560;10.246;2023-10-19T07:35:04;27.27;;;13.07;;
18748;SDS011;9503;53.560;10.246;2023-10-19T07:37:32;27.30;;;13.23;;
18748;SDS011;9503;53.560;10.246;2023-10-19T07:39:59;28.87;;;12.70;;
18748;SDS011;9503;53.560;10.246;2023-10-19T07:42:26;29.17;;;12.57;;
18748;SDS011;9503;53.560;10.246;2023-10-19T07:44:52;29.80;;;13.27;;
18748;SDS011;9503;53.560;10.246;2023-10-19T07:47:19;30.40;;;13.73;;
18748;SDS011;9503;53.560;10.246;2023-10-19T07:49:46;28.23;;;13.20;;
18748;SDS011;9503;53.560;10.246;2023-10-19T07:52:16;25.07;;;13.33;;
18748;SDS011;9503;53.560;10.246;2023-10-19T07:54:45;29.53;;;12.70;;
18748;SDS011;9503;53.560;10.246;2023-10-19T07:57:12;27.40;;;13.47;;
18748;SDS011;9503;53.560;10.246;2023-10-19T07:59:39;29.93;;;14.03;;
18748;SDS011;9503;53.560;10.246;2023-10-19T08:02:06;31.40;;;13.37;;
18748;SDS011;9503;53.560;10.246;2023-10-19T08:04:33;26.87;;;13.93;;
18748;SDS011;9503;53.560;10.246;2023-10-19T08:07:01;26.03;;;13.80;;
18748;SDS011;9503;53.560;10.246;2023-10-19T08:09:28;28.97;;;14.33;;
18748;SDS011;9503;53.560;10.246;2023-10-19T08:11:58;26.63;;;14.23;;
18748;SDS011;9503;53.560;10.246;2023-10-19T08:14:25;25.93;;;13.70;;
18748;SDS011;9503;53.560;10.246;2023-10-19T08:16:52;28.90;;;13.97;;
18748;SDS011;9503;53.560;10.246;2023-10-19T08:19:19;24.90;;;12.57;;
18748;SDS011;9503;53.560;10.246;2023-10-19T08:21:47;30.10;;;13.20;;
18748;SDS011;9503;53.560;10.246;2023-10-19T08:24:15;27.67;;;13.73;;
18748;SDS011;9503;53.560;10.246;2023-10-19T08:26:44;32.57;;;13.27;;
18748;SDS011;9503;53.560;10.246;2023-10-19T08:29:13;28.33;;;14.37;;
18748;SDS011;9503;53.560;10.246;2023-10-19T08:31:40;27.37;;;14.73;;
18748;SDS011;9503;53.560;10.246;2023-10-19T08:34:07;29.80;;;13.90;;
18748;SDS011;9503;53.560;10.246;2023-10-19T08:36:36;30.30;;;14.17;;
18748;SDS011;9503;53.560;10.246;2023-10-19T08:39:03;28.43;;;13.40;;
18748;SDS011;9503;53.560;10.246;2023-10-19T08:41:31;31.07;;;14.57;;
18748;SDS011;9503;53.560;10.246;2023-10-19T08:43:59;28.13;;;13.20;;
18748;SDS011;9503;53.560;10.246;2023-10-19T08:46:28;30.43;;;14.90;;
18748;SDS011;9503;53.560;10.246;2023-10-19T08:48:55;32.70;;;14.57;;
18748;SDS011;9503;53.560;10.246;2023-10-19T08:51:22;35.37;;;15.07;;
18748;SDS011;9503;53.560;10.246;2023-10-19T08:53:50;31.23;;;14.90;;
18748;SDS011;9503;53.560;10.246;2023-10-19T08:56:20;31.83;;;15.57;;
18748;SDS011;9503;53.560;10.246;2023-10-19T08:58:48;31.13;;;13.73;;
18748;SDS011;9503;53.560;10.246;2023-10-19T09:01:17;30.53;;;14.63;;
18748;SDS011;9503;53.560;10.246;2023-10-19T09:03:46;31.23;;;16.10;;
18748;SDS011;9503;53.560;10.246;2023-10-19T09:06:12;34.23;;;14.67;;
18748;SDS011;9503;53.560;10.246;2023-10-19T09:08:40;32.77;;;16.00;;
18748;SDS011;9503;53.560;10.246;2023-10-19T09:11:10;38.07;;;16.10;;
18748;SDS011;9503;53.560;10.246;2023-10-19T09:13:44;30.47;;;15.23;;
18748;SDS011;9503;53.560;10.246;2023-10-19T09:16:13;28.90;;;15.53;;
18748;SDS011;9503;53.560;10.246;2023-10-19T09:18:41;30.37;;;14.80;;
18748;SDS011;9503;53.560;10.246;2023-10-19T09:21:11;33.43;;;15.87;;
18748;SDS011;9503;53.560;10.246;2023-10-19T09:23:49;27.27;;;13.97;;
18748;SDS011;9503;53.560;10.246;2023-10-19T09:26:17;31.00;;;14.33;;
18748;SDS011;9503;53.560;10.246;2023-10-19T09:28:47;33.77;;;15.23;;
18748;SDS011;9503;53.560;10.246;2023-10-19T09:31:14;33.00;;;16.97;;
18748;SDS011;9503;53.560;10.246;2023-10-19T09:33:42;30.33;;;15.13;;
18748;SDS011;9503;53.560;10.246;2023-10-19T09:36:12;33.73;;;16.37;;
18748;SDS011;9503;53.560;10.246;2023-10-19T09:38:39;29.30;;;15.30;;
18748;SDS011;9503;53.560;10.246;2023-10-19T09:41:12;28.67;;;14.50;;
18748;SDS011;9503;53.560;10.246;2023-10-19T09:43:41;28.93;;;14.20;;
18748;SDS011;9503;53.560;10.246;2023-10-19T09:46:09;34.80;;;15.67;;
18748;SDS011;9503;53.560;10.246;2023-10-19T09:48:39;36.27;;;16.83;;
18748;SDS011;9503;53.560;10.246;2023-10-19T09:51:07;30.70;;;15.97;;
18748;SDS011;9503;53.560;10.246;2023-10-19T09:53:36;30.73;;;15.37;;
18748;SDS011;9503;53.560;10.246;2023-10-19T09:56:06;32.87;;;15.03;;
18748;SDS011;9503;53.560;10.246;2023-10-19T09:58:38;32.27;;;14.90;;
18748;SDS011;9503;53.560;10.246;2023-10-19T10:01:11;33.17;;;15.97;;
18748;SDS011;9503;53.560;10.246;2023-10-19T10:03:45;28.27;;;14.77;;
18748;SDS011;9503;53.560;10.246;2023-10-19T10:06:14;31.77;;;14.53;;
18748;SDS011;9503;53.560;10.246;2023-10-19T10:08:43;28.50;;;15.57;;
18748;SDS011;9503;53.560;10.246;2023-10-19T10:11:16;32.27;;;16.07;;
18748;SDS011;9503;53.560;10.246;2023-10-19T10:13:44;30.17;;;15.37;;
18748;SDS011;9503;53.560;10.246;2023-10-19T10:16:15;28.47;;;14.63;;
18748;SDS011;9503;53.560;10.246;2023-10-19T10:18:41;32.80;;;15.33;;
18748;SDS011;9503;53.560;10.246;2023-10-19T10:21:10;29.27;;;14.63;;
18748;SDS011;9503;53.560;10.246;2023-10-19T10:23:43;30.50;;;14.67;;
18748;SDS011;9503;53.560;10.246;2023-10-19T10:26:12;31.87;;;16.00;;
18748;SDS011;9503;53.560;10.246;2023-10-19T10:28:40;33.17;;;15.67;;
18748;SDS011;9503;53.560;10.246;2023-10-19T10:31:15;37.10;;;14.50;;
18748;SDS011;9503;53.560;10.246;2023-10-19T10:33:46;32.67;;;15.33;;
18748;SDS011;9503;53.560;10.246;2023-10-19T10:36:15;30.03;;;15.10;;
18748;SDS011;9503;53.560;10.246;2023-10-19T10:38:44;30.97;;;14.60;;
18748;SDS011;9503;53.560;10.246;2023-10-19T10:41:12;30.23;;;15.63;;
18748;SDS011;9503;53.560;10.246;2023-10-19T10:43:48;35.30;;;16.13;;
18748;SDS011;9503;53.560;10.246;2023-10-19T10:46:18;29.10;;;14.93;;
18748;SDS011;9503;53.560;10.246;2023-10-19T10:48:45;29.93;;;15.40;;
18748;SDS011;9503;53.560;10.246;2023-10-19T10:51:17;29.17;;;15.10;;
18748;SDS011;9503;53.560;10.246;2023-10-19T10:53:47;31.53;;;15.33;;
18748;SDS011;9503;53.560;10.246;2023-10-19T10:56:31;32.97;;;16.23;;
18748;SDS011;9503;53.560;10.246;2023-10-19T10:58:58;32.03;;;16.07;;
18748;SDS011;9503;53.560;10.246;2023-10-19T11:01:28;31.00;;;15.57;;
18748;SDS011;9503;53.560;10.246;2023-10-19T11:04:08;29.63;;;15.53;;
18748;SDS011;9503;53.560;10.246;2023-10-19T11:06:48;31.20;;;16.40;;
18748;SDS011;9503;53.560;10.246;2023-10-19T11:09:16;30.60;;;16.30;;
18748;SDS011;9503;53.560;10.246;2023-10-19T11:11:44;29.77;;;16.20;;
18748;SDS011;9503;53.560;10.246;2023-10-19T11:14:11;31.00;;;15.63;;
18748;SDS011;9503;53.560;10.246;2023-10-19T11:16:38;27.57;;;16.00;;
18748;SDS011;9503;53.560;10.246;2023-10-19T11:19:05;34.40;;;16.97;;
18748;SDS011;9503;53.560;10.246;2023-10-19T11:21:33;38.57;;;17.27;;
18748;SDS011;9503;53.560;10.246;2023-10-19T11:24:00;31.17;;;16.47;;
18748;SDS011;9503;53.560;10.246;2023-10-19T11:26:29;36.00;;;17.13;;
18748;SDS011;9503;53.560;10.246;2023-10-19T11:28:56;35.70;;;17.10;;
18748;SDS011;9503;53.560;10.246;2023-10-19T11:31:23;35.40;;;16.60;;
18748;SDS011;9503;53.560;10.246;2023-10-19T11:33:51;34.97;;;17.30;;
18748;SDS011;9503;53.560;10.246;2023-10-19T11:36:21;33.37;;;17.43;;
18748;SDS011;9503;53.560;10.246;2023-10-19T11:38:50;38.73;;;17.63;;
18748;SDS011;9503;53.560;10.246;2023-10-19T11:41:19;35.03;;;16.70;;
18748;SDS011;9503;53.560;10.246;2023-10-19T11:43:48;30.13;;;16.53;;
18748;SDS011;9503;53.560;10.246;2023-10-19T11:46:15;33.70;;;17.13;;
18748;SDS011;9503;53.560;10.246;2023-10-19T11:48:44;30.93;;;16.00;;
18748;SDS011;9503;53.560;10.246;2023-10-19T11:51:12;32.60;;;17.13;;
18748;SDS011;9503;53.560;10.246;2023-10-19T11:53:40;32.13;;;16.70;;
18748;SDS011;9503;53.560;10.246;2023-10-19T11:56:11;30.37;;;16.27;;
18748;SDS011;9503;53.560;10.246;2023-10-19T11:58:38;33.03;;;16.60;;
18748;SDS011;9503;53.560;10.246;2023-10-19T12:01:08;30.07;;;16.23;;
18748;SDS011;9503;53.560;10.246;2023-10-19T12:03:37;29.27;;;15.73;;
18748;SDS011;9503;53.560;10.246;2023-10-19T12:06:05;32.33;;;16.70;;
18748;SDS011;9503;53.560;10.246;2023-10-19T12:08:32;29.10;;;15.87;;
18748;SDS011;9503;53.560;10.246;2023-10-19T12:10:59;29.73;;;15.47;;
18748;SDS011;9503;53.560;10.246;2023-10-19T12:13:28;31.63;;;16.97;;
18748;SDS011;9503;53.560;10.246;2023-10-19T12:15:55;30.23;;;15.23;;
18748;SDS011;9503;53.560;10.246;2023-10-19T12:18:24;25.70;;;15.17;;
18748;SDS011;9503;53.560;10.246;2023-10-19T12:20:53;32.43;;;16.17;;
18748;SDS011;9503;53.560;10.246;2023-10-19T12:23:21;30.67;;;15.77;;
18748;SDS011;9503;53.560;10.246;2023-10-19T12:25:49;29.63;;;15.77;;
18748;SDS011;9503;53.560;10.246;2023-10-19T12:28:16;29.13;;;15.87;;
18748;SDS011;9503;53.560;10.246;2023-10-19T12:30:42;36.47;;;16.10;;
18748;SDS011;9503;53.560;10.246;2023-10-19T12:33:10;29.13;;;15.17;;
18748;SDS011;9503;53.560;10.246;2023-10-19T12:35:41;29.77;;;15.23;;
18748;SDS011;9503;53.560;10.246;2023-10-19T12:38:11;32.80;;;15.57;;
18748;SDS011;9503;53.560;10.246;2023-10-19T12:40:42;29.50;;;16.17;;
18748;SDS011;9503;53.560;10.246;2023-10-19T12:43:09;30.87;;;16.57;;
18748;SDS011;9503;53.560;10.246;2023-10-19T12:45:37;30.97;;;15.53;;
18748;SDS011;9503;53.560;10.246;2023-10-19T12:48:04;32.87;;;16.27;;
18748;SDS011;9503;53.560;10.246;2023-10-19T12:50:33;31.60;;;15.50;;
18748;SDS011;9503;53.560;10.246;2023-10-19T12:53:03;32.37;;;15.33;;
18748;SDS011;9503;53.560;10.246;2023-10-19T12:55:31;32.00;;;15.53;;
18748;SDS011;9503;53.560;10.246;2023-10-19T12:57:58;34.53;;;16.80;;
18748;SDS011;9503;53.560;10.246;2023-10-19T13:00:32;30.37;;;15.63;;
18748;SDS011;9503;53.560;10.246;2023-10-19T13:03:06;28.63;;;15.17;;
18748;SDS011;9503;53.560;10.246;2023-10-19T13:05:34;30.20;;;15.33;;
18748;SDS011;9503;53.560;10.246;2023-10-19T13:08:04;32.00;;;15.70;;
18748;SDS011;9503;53.560;10.246;2023-10-19T13:10:32;25.13;;;14.33;;
18748;SDS011;9503;53.560;10.246;2023-10-19T13:13:00;31.40;;;14.40;;
18748;SDS011;9503;53.560;10.246;2023-10-19T13:15:29;28.87;;;12.97;;
18748;SDS011;9503;53.560;10.246;2023-10-19T13:17:56;29.73;;;13.97;;
18748;SDS011;9503;53.560;10.246;2023-10-19T13:20:24;26.77;;;13.80;;
18748;SDS011;9503;53.560;10.246;2023-10-19T13:22:51;29.07;;;13.73;;
18748;SDS011;9503;53.560;10.246;2023-10-19T13:25:19;29.93;;;13.87;;
18748;SDS011;9503;53.560;10.246;2023-10-19T13:28:04;32.50;;;13.90;;
18748;SDS011;9503;53.560;10.246;2023-10-19T13:30:35;26.80;;;13.10;;
18748;SDS011;9503;53.560;10.246;2023-10-19T13:33:03;23.67;;;12.93;;
18748;SDS011;9503;53.560;10.246;2023-10-19T13:35:31;24.17;;;13.77;;
18748;SDS011;9503;53.560;10.246;2023-10-19T13:37:58;24.57;;;13.63;;
18748;SDS011;9503;53.560;10.246;2023-10-19T13:40:27;27.13;;;12.90;;
18748;SDS011;9503;53.560;10.246;2023-10-19T13:42:56;23.43;;;12.57;;
18748;SDS011;9503;53.560;10.246;2023-10-19T13:45:23;26.10;;;12.30;;
18748;SDS011;9503;53.560;10.246;2023-10-19T13:47:50;29.57;;;12.90;;
18748;SDS011;9503;53.560;10.246;2023-10-19T13:50:20;26.97;;;13.07;;
18748;SDS011;9503;53.560;10.246;2023-10-19T13:52:50;23.27;;;12.40;;
18748;SDS011;9503;53.560;10.246;2023-10-19T13:55:17;24.47;;;11.77;;
18748;SDS011;9503;53.560;10.246;2023-10-19T13:57:47;26.63;;;12.97;;
18748;SDS011;9503;53.560;10.246;2023-10-19T14:00:14;26.43;;;11.90;;
18748;SDS011;9503;53.560;10.246;2023-10-19T14:02:48;24.47;;;12.10;;
18748;SDS011;9503;53.560;10.246;2023-10-19T14:05:15;20.77;;;11.60;;
18748;SDS011;9503;53.560;10.246;2023-10-19T14:07:42;24.70;;;11.57;;
18748;SDS011;9503;53.560;10.246;2023-10-19T14:10:09;23.40;;;11.57;;
18748;SDS011;9503;53.560;10.246;2023-10-19T14:12:38;21.13;;;11.53;;
18748;SDS011;9503;53.560;10.246;2023-10-19T14:15:11;26.03;;;12.53;;
18748;SDS011;9503;53.560;10.246;2023-10-19T14:17:38;22.80;;;11.97;;
18748;SDS011;9503;53.560;10.246;2023-10-19T14:20:06;21.73;;;11.37;;
18748;SDS011;9503;53.560;10.246;2023-10-19T14:22:37;28.03;;;13.20;;
18748;SDS011;9503;53.560;10.246;2023-10-19T14:25:04;19.73;;;11.53;;
18748;SDS011;9503;53.560;10.246;2023-10-19T14:27:34;20.53;;;11.87;;
18748;SDS011;9503;53.560;10.246;2023-10-19T14:30:01;22.43;;;11.90;;
18748;SDS011;9503;53.560;10.246;2023-10-19T14:32:30;23.83;;;11.30;;
18748;SDS011;9503;53.560;10.246;2023-10-19T14:34:56;24.67;;;13.57;;